createdAt,value
2023-04-02T00:00:11.410Z,57.47
2023-04-02T00:02:48.826Z,57.14
2023-04-02T00:05:19.806Z,57.08
2023-04-02T00:07:54.213Z,57.08
2023-04-02T00:10:46.863Z,56.82
2023-04-02T00:13:14.181Z,56.81
2023-04-02T00:15:44.206Z,56.74
2023-04-02T00:18:16.667Z,56.83
2023-04-02T00:20:49.321Z,56.54
2023-04-02T00:23:16.528Z,56.47
2023-04-02T00:25:45.818Z,56.45
2023-04-02T00:28:16.358Z,56.84
2023-04-02T00:30:54.658Z,57.13
2023-04-02T00:33:28.035Z,56.85
2023-04-02T00:35:56.311Z,57.07
2023-04-02T00:38:33.415Z,56.80
2023-04-02T00:41:02.251Z,56.62
2023-04-02T00:43:32.401Z,56.56
2023-04-02T00:46:05.410Z,56.00
2023-04-02T00:48:32.433Z,55.90
2023-04-02T00:51:30.422Z,55.85
2023-04-02T00:54:00.996Z,55.43
2023-04-02T00:56:33.525Z,55.43
2023-04-02T00:59:01.122Z,55.31
2023-04-02T01:01:38.030Z,54.74
2023-04-02T01:04:05.861Z,55.02
2023-04-02T01:06:37.726Z,54.98
2023-04-02T01:09:26.393Z,54.98
2023-04-02T01:11:53.309Z,54.94
2023-04-02T01:14:48.064Z,54.82
2023-04-02T01:17:39.289Z,54.65
2023-04-02T01:20:33.606Z,54.46
2023-04-02T01:23:00.809Z,54.79
2023-04-02T01:26:17.245Z,54.56
2023-04-02T01:29:20.936Z,54.57
2023-04-02T01:31:50.409Z,54.65
2023-04-02T01:34:21.120Z,54.61
2023-04-02T01:36:59.208Z,54.52
2023-04-02T01:39:41.907Z,54.32
2023-04-02T01:42:20.989Z,54.56
2023-04-02T01:44:53.510Z,54.42
2023-04-02T01:47:29.082Z,54.43
2023-04-02T01:50:20.482Z,54.66
2023-04-02T01:52:51.153Z,54.56
2023-04-02T01:55:29.754Z,54.49
2023-04-02T01:57:58.584Z,54.62
2023-04-02T02:00:28.014Z,54.43
2023-04-02T02:02:55.653Z,54.75
2023-04-02T02:05:23.426Z,54.91
2023-04-02T02:07:52.413Z,55.11
2023-04-02T02:10:27.197Z,55.35
2023-04-02T02:12:54.620Z,55.24
2023-04-02T02:15:23.837Z,55.56
2023-04-02T02:17:58.548Z,55.64
2023-04-02T02:20:28.196Z,55.60
2023-04-02T02:22:56.649Z,55.59
2023-04-02T02:25:33.723Z,55.46
2023-04-02T02:28:09.913Z,55.82
2023-04-02T02:31:05.775Z,55.67
2023-04-02T02:33:52.777Z,55.91
2023-04-02T02:36:33.946Z,55.60
2023-04-02T02:39:04.273Z,55.39
2023-04-02T02:41:33.994Z,55.77
2023-04-02T02:44:10.223Z,55.90
2023-04-02T02:46:54.902Z,56.14
2023-04-02T02:49:28.570Z,56.04
2023-04-02T02:52:06.722Z,56.43
2023-04-02T02:54:40.182Z,55.86
2023-04-02T02:57:13.476Z,56.00
2023-04-02T02:59:42.484Z,56.45
2023-04-02T03:02:10.020Z,55.90
2023-04-02T03:04:38.681Z,56.17
2023-04-02T03:07:09.168Z,55.92
2023-04-02T03:09:36.111Z,56.08
2023-04-02T03:12:13.777Z,55.94
2023-04-02T03:14:47.895Z,55.89
2023-04-02T03:17:33.558Z,55.63
2023-04-02T03:20:37.481Z,55.62
2023-04-02T03:23:19.146Z,55.73
2023-04-02T03:25:59.424Z,55.32
2023-04-02T03:28:31.406Z,55.10
2023-04-02T03:31:01.650Z,54.66
2023-04-02T03:33:35.574Z,54.98
2023-04-02T03:36:19.820Z,54.94
2023-04-02T03:39:02.487Z,54.80
2023-04-02T03:41:45.258Z,54.63
2023-04-02T03:44:30.815Z,54.88
2023-04-02T03:47:32.677Z,54.83
2023-04-02T03:50:01.597Z,54.88
2023-04-02T03:52:30.897Z,54.42
2023-04-02T03:55:00.929Z,54.43
2023-04-02T03:57:31.004Z,54.06
2023-04-02T04:00:07.689Z,54.08
2023-04-02T04:02:46.768Z,53.96
2023-04-02T04:05:24.656Z,53.63
2023-04-02T04:08:01.799Z,53.90
2023-04-02T04:10:30.750Z,53.92
2023-04-02T04:13:06.020Z,53.87
2023-04-02T04:15:53.396Z,53.65
2023-04-02T04:18:24.451Z,53.70
2023-04-02T04:20:57.086Z,53.38
2023-04-02T04:23:36.044Z,53.43
2023-04-02T04:26:19.731Z,53.42
2023-04-02T04:29:05.888Z,53.28
2023-04-02T04:31:39.871Z,53.08
2023-04-02T04:34:16.915Z,53.10
2023-04-02T04:36:54.565Z,52.96
2023-04-02T04:39:45.715Z,52.66
2023-04-02T04:42:24.985Z,52.62
2023-04-02T04:45:10.000Z,52.65
2023-04-02T04:47:40.882Z,52.35
2023-04-02T04:50:19.381Z,52.00
2023-04-02T04:52:46.560Z,51.86
2023-04-02T04:56:18.212Z,51.83
2023-04-02T04:58:53.269Z,51.58
2023-04-02T05:01:43.109Z,51.35
2023-04-02T05:04:17.104Z,51.21
2023-04-02T05:06:53.098Z,51.28
2023-04-02T05:09:49.550Z,50.82
2023-04-02T05:12:35.537Z,50.83
2023-04-02T05:15:27.019Z,50.43
2023-04-02T05:18:18.471Z,50.55
2023-04-02T05:21:13.032Z,50.78
2023-04-02T05:24:18.288Z,50.85
2023-04-02T05:26:47.715Z,50.81
2023-04-02T05:29:36.075Z,50.28
2023-04-02T05:32:36.444Z,50.34
2023-04-02T05:35:08.686Z,50.50
2023-04-02T05:37:53.821Z,50.20
2023-04-02T05:40:33.263Z,50.44
2023-04-02T05:43:04.349Z,50.15
2023-04-02T05:45:39.235Z,49.71
2023-04-02T05:48:22.501Z,49.34
2023-04-02T05:50:52.728Z,49.08
2023-04-02T05:53:32.341Z,49.25
2023-04-02T05:56:20.760Z,48.99
2023-04-02T05:58:56.029Z,49.18
2023-04-02T06:01:38.303Z,48.75
2023-04-02T06:04:36.624Z,48.54
2023-04-02T06:07:09.214Z,48.59
2023-04-02T06:09:46.557Z,48.63
2023-04-02T06:12:28.570Z,48.85
2023-04-02T06:14:55.842Z,48.52
2023-04-02T06:17:23.303Z,48.58
2023-04-02T06:19:52.399Z,48.41
2023-04-02T06:22:31.168Z,48.32
2023-04-02T06:25:27.297Z,48.04
2023-04-02T06:27:58.560Z,47.70
2023-04-02T06:30:32.994Z,47.99
2023-04-02T06:33:00.094Z,48.11
2023-04-02T06:35:28.157Z,47.99
2023-04-02T06:38:00.009Z,47.81
2023-04-02T06:40:49.581Z,47.97
2023-04-02T06:43:33.531Z,47.36
2023-04-02T06:46:07.197Z,47.68
2023-04-02T06:48:37.969Z,47.51
2023-04-02T06:51:11.577Z,47.00
2023-04-02T06:53:45.818Z,46.84
2023-04-02T06:56:48.238Z,46.85
2023-04-02T06:59:16.769Z,47.03
2023-04-02T07:04:10.549Z,47.55
2023-04-02T07:06:37.622Z,48.25
2023-04-02T07:09:04.776Z,48.21
2023-04-02T07:11:31.757Z,48.06
2023-04-02T07:13:59.058Z,48.38
2023-04-02T07:16:28.317Z,47.90
2023-04-02T07:18:56.438Z,47.64
2023-04-02T07:21:23.458Z,46.94
2023-04-02T07:23:50.527Z,47.08
2023-04-02T07:26:20.501Z,46.71
2023-04-02T07:28:47.565Z,46.40
2023-04-02T07:31:20.913Z,45.97
2023-04-02T07:33:48.375Z,46.30
2023-04-02T07:36:18.937Z,45.64
2023-04-02T07:38:46.524Z,45.77
2023-04-02T07:41:18.562Z,44.91
2023-04-02T07:43:46.415Z,44.61
2023-04-02T07:46:35.081Z,44.67
2023-04-02T07:49:09.466Z,44.96
2023-04-02T07:51:40.703Z,44.58
2023-04-02T07:54:10.817Z,44.38
2023-04-02T07:56:38.753Z,44.62
2023-04-02T07:59:06.549Z,44.62
2023-04-02T08:01:37.389Z,43.97
2023-04-02T08:04:05.473Z,43.77
2023-04-02T08:06:33.699Z,43.72
2023-04-02T08:09:06.519Z,43.49
2023-04-02T08:11:33.494Z,43.37
2023-04-02T08:14:03.802Z,43.11
2023-04-02T08:16:53.986Z,41.96
2023-04-02T08:19:21.555Z,42.31
2023-04-02T08:21:51.717Z,42.41
2023-04-02T08:24:19.689Z,42.11
2023-04-02T08:26:47.671Z,41.74
2023-04-02T08:29:14.992Z,41.76
2023-04-02T08:31:42.179Z,41.70
2023-04-02T08:34:09.379Z,41.93
2023-04-02T08:36:39.111Z,42.75
2023-04-02T08:39:12.008Z,43.08
2023-04-02T08:41:50.145Z,43.28
2023-04-02T08:44:47.750Z,43.16
2023-04-02T08:47:18.192Z,43.14
2023-04-02T08:49:50.026Z,43.44
2023-04-02T08:52:27.184Z,44.45
2023-04-02T08:54:56.418Z,44.32
2023-04-02T08:57:40.816Z,44.64
2023-04-02T09:00:13.475Z,44.48
2023-04-02T09:02:47.328Z,44.30
2023-04-02T09:05:23.914Z,44.29
2023-04-02T09:07:52.800Z,44.02
2023-04-02T09:10:20.125Z,44.24
2023-04-02T09:12:54.215Z,44.09
2023-04-02T09:15:31.587Z,43.91
2023-04-02T09:18:20.064Z,43.94
2023-04-02T09:20:48.347Z,43.98
2023-04-02T09:23:24.505Z,44.26
2023-04-02T09:26:03.489Z,44.26
2023-04-02T09:28:32.475Z,44.26
2023-04-02T09:31:11.780Z,44.38
2023-04-02T09:33:43.167Z,44.69
2023-04-02T09:36:34.381Z,44.82
2023-04-02T09:39:19.049Z,44.68
2023-04-02T09:41:55.845Z,44.56
2023-04-02T09:44:32.022Z,44.42
2023-04-02T09:47:04.182Z,44.63
2023-04-02T09:49:40.236Z,44.76
2023-04-02T09:52:29.960Z,44.88
2023-04-02T09:55:15.674Z,44.57
2023-04-02T09:57:43.753Z,44.42
2023-04-02T10:00:30.605Z,44.28
2023-04-02T10:03:14.175Z,44.26
2023-04-02T10:05:43.271Z,43.83
2023-04-02T10:08:25.501Z,43.74
2023-04-02T10:11:00.628Z,43.85
2023-04-02T10:13:46.467Z,44.22
2023-04-02T10:16:23.007Z,43.99
2023-04-02T10:19:29.164Z,44.19
2023-04-02T10:21:58.398Z,44.17
2023-04-02T10:24:27.890Z,44.09
2023-04-02T10:27:10.077Z,44.15
2023-04-02T10:30:04.166Z,43.80
2023-04-02T10:32:53.212Z,43.54
2023-04-02T10:35:38.305Z,43.40
2023-04-02T10:38:24.637Z,43.20
2023-04-02T10:40:58.385Z,42.88
2023-04-02T10:44:20.716Z,42.96
2023-04-02T10:47:09.727Z,42.87
2023-04-02T10:49:53.842Z,42.98
2023-04-02T10:52:23.402Z,43.13
2023-04-02T10:54:58.053Z,43.12
2023-04-02T10:57:38.599Z,42.90
2023-04-02T11:00:11.744Z,42.16
2023-04-02T11:02:45.036Z,42.16
2023-04-02T11:05:40.595Z,42.34
2023-04-02T11:08:14.624Z,42.62
2023-04-02T11:10:48.327Z,42.18
2023-04-02T11:13:37.432Z,42.68
2023-04-02T11:16:04.712Z,42.73
2023-04-02T11:18:37.603Z,42.63
2023-04-02T11:21:23.160Z,42.41
2023-04-02T11:24:01.996Z,42.47
2023-04-02T11:26:42.694Z,42.48
2023-04-02T11:29:21.395Z,42.50
2023-04-02T11:31:51.491Z,42.78
2023-04-02T11:35:07.188Z,43.11
2023-04-02T11:37:45.762Z,43.63
2023-04-02T11:40:16.024Z,43.81
2023-04-02T11:42:43.988Z,43.64
2023-04-02T11:45:23.724Z,44.12
2023-04-02T11:47:59.740Z,43.99
2023-04-02T11:50:38.041Z,44.02
2023-04-02T11:53:16.072Z,44.41
2023-04-02T11:55:47.452Z,44.24
2023-04-02T11:58:48.276Z,44.20
2023-04-02T12:01:47.523Z,44.69
2023-04-02T12:04:39.353Z,44.89
2023-04-02T12:07:35.276Z,44.97
2023-04-02T12:10:32.582Z,45.45
2023-04-02T12:12:59.786Z,45.36
2023-04-02T12:15:27.242Z,45.63
2023-04-02T12:18:02.745Z,45.82
2023-04-02T12:20:31.574Z,45.99
2023-04-02T12:22:58.989Z,46.23
2023-04-02T12:25:40.267Z,46.16
2023-04-02T12:28:10.000Z,46.12
2023-04-02T12:30:41.285Z,45.98
2023-04-02T12:33:24.084Z,45.89
2023-04-02T12:35:58.216Z,46.12
2023-04-02T12:38:29.723Z,45.99
2023-04-02T12:40:59.085Z,45.95
2023-04-02T12:43:34.939Z,45.81
2023-04-02T12:46:05.956Z,45.56
2023-04-02T12:48:35.003Z,45.31
2023-04-02T12:51:04.036Z,45.23
2023-04-02T12:53:41.448Z,44.89
2023-04-02T12:56:19.781Z,44.83
2023-04-02T12:58:56.835Z,44.58
2023-04-02T13:01:29.580Z,44.58
2023-04-02T13:04:08.440Z,44.13
2023-04-02T13:06:36.568Z,44.34
2023-04-02T13:09:28.542Z,44.36
2023-04-02T13:11:58.611Z,44.56
2023-04-02T13:14:26.874Z,44.53
2023-04-02T13:16:54.849Z,44.39
2023-04-02T13:19:25.792Z,44.52
2023-04-02T13:21:54.179Z,44.55
2023-04-02T13:24:29.304Z,44.98
2023-04-02T13:26:58.460Z,45.14
2023-04-02T13:29:31.777Z,45.28
2023-04-02T13:32:02.508Z,45.55
2023-04-02T13:34:30.041Z,45.57
2023-04-02T13:36:57.707Z,45.51
2023-04-02T13:39:25.284Z,45.95
2023-04-02T13:42:01.787Z,46.50
2023-04-02T13:44:31.887Z,46.35
2023-04-02T13:46:59.441Z,46.31
2023-04-02T13:49:27.687Z,46.26
2023-04-02T13:52:05.777Z,46.58
2023-04-02T13:54:49.174Z,46.74
2023-04-02T13:57:16.372Z,46.70
2023-04-02T13:59:43.370Z,47.09
2023-04-02T14:02:17.415Z,47.47
2023-04-02T14:04:51.547Z,47.49
2023-04-02T14:07:22.136Z,47.41
2023-04-02T14:10:00.309Z,47.26
2023-04-02T14:12:54.094Z,47.51
2023-04-02T14:15:52.740Z,47.52
2023-04-02T14:18:42.247Z,47.04
2023-04-02T14:21:26.680Z,46.82
2023-04-02T14:24:15.025Z,46.39
2023-04-02T14:27:27.454Z,46.46
2023-04-02T14:30:04.553Z,46.63
2023-04-02T14:32:58.518Z,46.75
2023-04-02T14:35:37.889Z,47.32
2023-04-02T14:38:11.121Z,47.31
2023-04-02T14:40:53.391Z,47.29
2023-04-02T14:43:28.007Z,47.54
2023-04-02T14:46:05.361Z,48.04
2023-04-02T14:48:44.522Z,48.34
2023-04-02T14:51:14.421Z,48.36
2023-04-02T14:54:09.419Z,48.76
2023-04-02T14:56:53.078Z,49.02
2023-04-02T14:59:25.960Z,49.28
2023-04-02T15:02:00.067Z,49.35
2023-04-02T15:04:32.670Z,49.82
2023-04-02T15:07:14.282Z,49.96
2023-04-02T15:09:47.738Z,50.55
2023-04-02T15:12:22.969Z,50.55
2023-04-02T15:14:56.087Z,50.63
2023-04-02T15:17:24.934Z,50.83
2023-04-02T15:20:02.617Z,50.93
2023-04-02T15:22:45.047Z,51.30
2023-04-02T15:25:24.987Z,51.59
2023-04-02T15:28:02.868Z,51.78
2023-04-02T15:30:38.088Z,52.05
2023-04-02T15:33:33.306Z,52.28
2023-04-02T15:36:18.540Z,52.27
2023-04-02T15:38:52.400Z,52.71
2023-04-02T15:41:32.318Z,52.96
2023-04-02T15:44:15.751Z,53.12
2023-04-02T15:46:42.616Z,53.35
2023-04-02T15:49:27.860Z,53.09
2023-04-02T15:52:14.335Z,53.45
2023-04-02T15:54:41.343Z,53.76
2023-04-02T15:57:27.126Z,54.12
2023-04-02T16:00:20.051Z,54.60
2023-04-02T16:03:17.436Z,54.53
2023-04-02T16:06:13.067Z,54.82
2023-04-02T16:08:45.765Z,54.94
2023-04-02T16:11:15.132Z,55.29
2023-04-02T16:13:43.116Z,55.39
2023-04-02T16:16:14.588Z,55.31
2023-04-02T16:18:50.864Z,55.62
2023-04-02T16:21:22.574Z,55.58
2023-04-02T16:23:49.968Z,55.60
2023-04-02T16:26:52.389Z,56.00
2023-04-02T16:29:55.059Z,55.98
2023-04-02T16:32:48.346Z,55.82
2023-04-02T16:35:52.877Z,56.15
2023-04-02T16:38:44.667Z,56.26
2023-04-02T16:41:48.212Z,56.60
2023-04-02T16:44:28.609Z,56.58
2023-04-02T16:47:04.829Z,56.56
2023-04-02T16:49:37.597Z,56.57
2023-04-02T16:52:17.484Z,56.74
2023-04-02T16:54:58.554Z,56.75
2023-04-02T16:57:49.000Z,56.96
2023-04-02T17:00:22.399Z,57.04
2023-04-02T17:03:13.688Z,57.19
2023-04-02T17:06:02.036Z,57.51
2023-04-02T17:09:07.410Z,57.77
2023-04-02T17:11:43.568Z,57.85
2023-04-02T17:14:16.980Z,57.69
2023-04-02T17:16:46.052Z,58.17
2023-04-02T17:19:16.782Z,57.92
2023-04-02T17:21:49.852Z,58.16
2023-04-02T17:24:26.072Z,58.42
2023-04-02T17:27:05.594Z,58.64
2023-04-02T17:29:42.608Z,58.65
2023-04-02T17:32:20.727Z,58.81
2023-04-02T17:34:47.654Z,58.88
2023-04-02T17:37:31.836Z,59.09
2023-04-02T17:40:19.636Z,59.32
2023-04-02T17:43:03.710Z,59.47
2023-04-02T17:45:40.299Z,59.58
2023-04-02T17:48:16.548Z,59.45
2023-04-02T17:50:53.875Z,59.64
2023-04-02T17:54:05.456Z,59.75
2023-04-02T17:57:02.564Z,59.80
2023-04-02T17:59:56.616Z,59.72
2023-04-02T18:02:35.142Z,59.52
2023-04-02T18:05:37.597Z,59.89
2023-04-02T18:08:29.521Z,59.82
2023-04-02T18:11:10.107Z,59.88
2023-04-02T18:13:51.309Z,60.07
2023-04-02T18:16:45.156Z,60.03
2023-04-02T18:19:20.710Z,59.87
2023-04-02T18:22:13.923Z,60.37
2023-04-02T18:25:22.130Z,60.13
2023-04-02T18:27:55.178Z,60.08
2023-04-02T18:30:55.154Z,60.23
2023-04-02T18:33:48.532Z,60.46
2023-04-02T18:36:52.839Z,60.68
2023-04-02T18:39:32.079Z,60.56
2023-04-02T18:42:27.222Z,60.50
2023-04-02T18:45:14.978Z,60.50
2023-04-02T18:48:06.769Z,60.62
2023-04-02T18:50:39.703Z,60.66
2023-04-02T18:53:16.789Z,60.67
2023-04-02T18:55:55.632Z,60.71
2023-04-02T18:58:34.189Z,61.01
2023-04-02T19:01:05.934Z,61.14
2023-04-02T19:03:40.346Z,61.26
2023-04-02T19:06:19.686Z,61.50
2023-04-02T19:09:00.007Z,61.27
2023-04-02T19:11:32.395Z,61.38
2023-04-02T19:14:01.828Z,61.49
2023-04-02T19:17:02.897Z,61.62
2023-04-02T19:19:38.464Z,61.54
2023-04-02T19:22:18.357Z,61.75
2023-04-02T19:25:09.969Z,61.70
2023-04-02T19:27:55.313Z,61.73
2023-04-02T19:30:40.733Z,61.67
2023-04-02T19:33:29.615Z,61.80
2023-04-02T19:36:27.209Z,61.72
2023-04-02T19:39:27.229Z,61.76
2023-04-02T19:42:23.730Z,61.67
2023-04-02T19:44:54.546Z,61.81
2023-04-02T19:47:24.927Z,61.67
2023-04-02T19:49:53.803Z,61.80
2023-04-02T19:52:21.897Z,62.03
2023-04-02T19:54:49.419Z,61.81
2023-04-02T19:57:17.801Z,61.61
2023-04-02T19:59:44.982Z,61.88
2023-04-02T20:02:12.132Z,61.50
2023-04-02T20:04:39.368Z,61.62
2023-04-02T20:07:06.554Z,61.79
2023-04-02T20:09:33.868Z,62.00
2023-04-02T20:12:01.295Z,62.08
2023-04-02T20:14:28.374Z,62.25
2023-04-02T20:16:55.892Z,62.49
2023-04-02T20:19:24.197Z,62.42
2023-04-02T20:21:51.935Z,62.67
2023-04-02T20:24:19.039Z,62.84
2023-04-02T20:26:46.153Z,62.61
2023-04-02T20:29:13.422Z,62.67
2023-04-02T20:31:40.731Z,62.85
2023-04-02T20:34:09.723Z,62.57
2023-04-02T20:36:36.790Z,62.89
2023-04-02T20:39:07.316Z,62.77
2023-04-02T20:41:34.540Z,62.67
2023-04-02T20:44:02.248Z,62.11
2023-04-02T20:46:29.690Z,62.22
2023-04-02T20:48:56.746Z,62.17
2023-04-02T20:51:23.707Z,62.01
2023-04-02T20:53:50.715Z,62.18
2023-04-02T20:56:19.219Z,62.12
2023-04-02T20:58:46.297Z,61.86
2023-04-02T21:01:24.635Z,62.04
2023-04-02T21:04:02.665Z,62.21
2023-04-02T21:06:32.545Z,62.00
2023-04-02T21:09:01.709Z,61.84
2023-04-02T21:11:28.761Z,61.92
2023-04-02T21:13:56.102Z,62.11
2023-04-02T21:16:28.560Z,61.98
2023-04-02T21:18:58.534Z,62.18
2023-04-02T21:21:26.041Z,62.00
2023-04-02T21:24:01.711Z,61.96
2023-04-02T21:26:33.330Z,62.10
2023-04-02T21:29:01.909Z,62.18
2023-04-02T21:31:31.109Z,62.19
2023-04-02T21:33:59.368Z,61.98
2023-04-02T21:36:29.474Z,62.03
2023-04-02T21:39:08.578Z,62.02
2023-04-02T21:41:38.165Z,62.01
2023-04-02T21:44:07.433Z,61.94
2023-04-02T21:46:38.804Z,62.19
2023-04-02T21:49:08.197Z,62.10
2023-04-02T21:51:36.921Z,62.33
2023-04-02T21:54:04.627Z,62.39
2023-04-02T21:56:34.717Z,62.16
2023-04-02T21:59:02.385Z,62.44
2023-04-02T22:01:32.673Z,62.74
2023-04-02T22:04:02.441Z,62.57
2023-04-02T22:06:32.312Z,62.65
2023-04-02T22:09:01.468Z,62.63
2023-04-02T22:11:35.983Z,62.75
2023-04-02T22:14:03.673Z,62.61
2023-04-02T22:16:33.731Z,62.87
2023-04-02T22:19:03.609Z,62.74
2023-04-02T22:21:31.494Z,63.10
2023-04-02T22:24:06.621Z,62.98
2023-04-02T22:26:35.386Z,63.28
2023-04-02T22:29:02.387Z,63.09
2023-04-02T22:31:31.657Z,63.18
2023-04-02T22:33:59.289Z,63.15
2023-04-02T22:36:28.050Z,63.50
2023-04-02T22:38:55.538Z,63.35
2023-04-02T22:41:28.240Z,63.48
2023-04-02T22:43:56.861Z,63.16
2023-04-02T22:46:25.805Z,63.18
2023-04-02T22:48:53.535Z,63.40
2023-04-02T22:51:22.424Z,63.33
2023-04-02T22:53:50.062Z,63.49
2023-04-02T22:56:20.445Z,63.64
2023-04-02T22:58:47.455Z,63.50
2023-04-02T23:01:22.222Z,63.54
2023-04-02T23:03:49.705Z,63.58
2023-04-02T23:06:18.512Z,63.26
2023-04-02T23:08:46.670Z,63.67
2023-04-02T23:11:22.878Z,63.64
2023-04-02T23:13:53.105Z,63.65
2023-04-02T23:16:20.697Z,63.41
2023-04-02T23:18:48.644Z,63.55
2023-04-02T23:21:17.668Z,63.56
2023-04-02T23:23:45.778Z,63.28
2023-04-02T23:26:17.988Z,63.51
2023-04-02T23:28:45.599Z,63.50
2023-04-02T23:31:15.992Z,63.73
2023-04-02T23:33:43.832Z,63.33
2023-04-02T23:36:27.390Z,63.44
2023-04-02T23:38:55.757Z,63.69
2023-04-02T23:41:24.705Z,63.53
2023-04-02T23:43:51.818Z,63.44
2023-04-02T23:46:19.436Z,63.65
2023-04-02T23:48:47.619Z,63.50
2023-04-02T23:51:14.791Z,63.81
2023-04-02T23:53:43.463Z,63.50
2023-04-02T23:56:10.744Z,63.77
2023-04-02T23:58:37.766Z,63.59
